Time;durP1;ratioP1;P1;durP2;ratioP2;P2;SDS_P1;SDS_P2;PMS_P1;PMS_P2;Temp;Humidity;BMP_temperature;BMP_pressure;BME280_temperature;BME280_humidity;BME280_pressure;Samples;Min_cycle;Max_cycle;Signal;HPM_P1;HPM_P2
2021/10/01 00:01:06;;;;;;;5.40;1.70;;;8.90;93.50;;;;;;5073400;28;20028;-69
2021/10/01 00:03:32;;;;;;;3.22;1.30;;;8.90;93.60;;;;;;5066056;28;20036;-70
2021/10/01 00:05:58;;;;;;;3.95;1.50;;;8.90;93.80;;;;;;5074926;28;20032;-70
2021/10/01 00:08:24;;;;;;;6.88;1.77;;;8.80;93.90;;;;;;5071775;28;20033;-69
2021/10/01 00:10:49;;;;;;;3.90;2.10;;;8.70;94.30;;;;;;5064257;28;20107;-70
2021/10/01 00:13:15;;;;;;;4.28;1.70;;;8.70;94.40;;;;;;5067535;28;20028;-69
2021/10/01 00:15:42;;;;;;;4.45;1.58;;;8.70;94.60;;;;;;5071202;28;20025;-69
2021/10/01 00:18:07;;;;;;;2.88;1.60;;;8.80;94.70;;;;;;5074765;28;20054;-69
2021/10/01 00:20:33;;;;;;;3.65;1.70;;;8.90;94.40;;;;;;5074708;28;20387;-69
2021/10/01 00:22:59;;;;;;;11.45;1.98;;;9.00;94.40;;;;;;5075764;28;20107;-69
2021/10/01 00:25:24;;;;;;;3.58;1.60;;;9.00;94.30;;;;;;5066632;28;20048;-70
2021/10/01 00:27:50;;;;;;;4.50;1.80;;;9.00;94.30;;;;;;5072104;28;20031;-69
2021/10/01 00:30:16;;;;;;;4.03;1.50;;;9.00;94.30;;;;;;5074914;28;20056;-69
2021/10/01 00:32:41;;;;;;;3.22;1.45;;;9.10;94.10;;;;;;5069701;28;20020;-69
2021/10/01 00:35:08;;;;;;;4.90;1.60;;;9.00;94.50;;;;;;5074477;28;20316;-69
2021/10/01 00:37:34;;;;;;;4.60;1.67;;;9.00;94.70;;;;;;5065350;28;20429;-69
2021/10/01 00:39:59;;;;;;;3.70;1.65;;;9.00;94.70;;;;;;5074860;28;20058;-68
2021/10/01 00:42:25;;;;;;;4.60;1.50;;;9.00;94.90;;;;;;5071819;28;20033;-69
2021/10/01 00:44:55;;;;;;;3.10;1.40;;;8.90;95.20;;;;;;5075783;28;20033;-71
2021/10/01 00:47:24;;;;;;;3.30;1.73;;;8.90;95.50;;;;;;5075057;28;20035;-70
2021/10/01 00:49:57;;;;;;;7.28;1.67;;;8.90;95.60;;;;;;5074779;28;20033;-68
2021/10/01 00:52:25;;;;;;;3.78;1.45;;;8.90;95.60;;;;;;5073578;28;20017;-69
2021/10/01 00:54:52;;;;;;;3.88;1.55;;;8.90;95.70;;;;;;5075989;28;20029;-69
2021/10/01 00:57:21;;;;;;;4.32;1.65;;;8.90;95.90;;;;;;5072062;28;20028;-70
2021/10/01 00:59:46;;;;;;;3.92;1.55;;;8.80;96.10;;;;;;5074360;28;20028;-68
2021/10/01 01:02:12;;;;;;;3.50;1.50;;;8.70;96.40;;;;;;5071187;28;20123;-69
2021/10/01 01:04:44;;;;;;;5.07;1.60;;;8.60;96.70;;;;;;5073595;28;20025;-69
2021/10/01 01:07:49;;;;;;;7.55;2.25;;;8.60;96.80;;;;;;5069581;28;20108;-69
2021/10/01 01:10:24;;;;;;;;;;;8.50;97.20;;;;;;5073990;28;20017;-69
2021/10/01 01:13:09;;;;;;;5.20;1.83;;;8.60;96.90;;;;;;5072262;28;19948;-69
2021/10/01 01:15:43;;;;;;;3.00;1.60;;;8.60;96.80;;;;;;5074830;28;20036;-69
2021/10/01 01:18:15;;;;;;;3.70;1.73;;;8.60;97.10;;;;;;5071547;28;20127;-69
2021/10/01 01:20:52;;;;;;;3.10;1.50;;;8.60;96.90;;;;;;5072268;28;20425;-69
2021/10/01 01:23:45;;;;;;;4.00;1.70;;;8.80;96.60;;;;;;5073287;28;20055;-69
2021/10/01 01:26:29;;;;;;;4.82;1.67;;;8.70;96.70;;;;;;5066787;28;20029;-69
2021/10/01 01:29:10;;;;;;;3.55;1.50;;;8.60;96.80;;;;;;5074223;28;20361;-69
2021/10/01 01:31:54;;;;;;;4.97;1.85;;;8.60;97.00;;;;;;5072819;28;20488;-69
2021/10/01 01:34:27;;;;;;;5.60;1.60;;;8.40;97.20;;;;;;5065854;28;20033;-68
2021/10/01 01:37:02;;;;;;;5.87;2.20;;;8.30;97.50;;;;;;5068015;28;20275;-69
2021/10/01 01:39:29;;;;;;;3.53;1.60;;;8.30;97.50;;;;;;5068634;28;20029;-70
2021/10/01 01:41:57;;;;;;;5.28;2.00;;;8.30;97.60;;;;;;5072445;28;20024;-70
2021/10/01 01:44:25;;;;;;;8.00;2.40;;;8.20;97.80;;;;;;5071841;28;20104;-70
2021/10/01 01:46:52;;;;;;;4.47;1.90;;;8.20;97.80;;;;;;5069885;28;20348;-69
2021/10/01 01:49:20;;;;;;;6.05;1.90;;;8.20;97.80;;;;;;5072950;28;20046;-70
2021/10/01 01:51:47;;;;;;;5.88;2.28;;;8.10;97.90;;;;;;5073668;28;20042;-70
2021/10/01 01:54:15;;;;;;;3.47;1.80;;;8.10;98.00;;;;;;5073756;28;20066;-69
2021/10/01 01:56:41;;;;;;;5.53;1.80;;;8.00;98.00;;;;;;5073042;28;20048;-70
2021/10/01 01:59:09;;;;;;;3.85;1.65;;;8.00;98.00;;;;;;5073465;28;20031;-69
2021/10/01 02:01:35;;;;;;;6.20;2.00;;;8.00;98.00;;;;;;5071064;28;20027;-69
2021/10/01 02:04:02;;;;;;;4.88;1.88;;;8.00;98.00;;;;;;5073766;28;20286;-69
2021/10/01 02:06:30;;;;;;;4.68;1.85;;;8.10;98.00;;;;;;5071822;28;20033;-69
2021/10/01 02:08:59;;;;;;;5.20;2.15;;;8.10;98.00;;;;;;5071776;28;20024;-72
2021/10/01 02:11:26;;;;;;;4.15;2.25;;;8.10;98.00;;;;;;5065195;28;20027;-70
2021/10/01 02:13:54;;;;;;;4.00;1.50;;;8.20;97.60;;;;;;5070654;28;20029;-69
2021/10/01 02:16:20;;;;;;;4.75;1.83;;;8.10;97.50;;;;;;5071998;28;20071;-69
2021/10/01 02:18:49;;;;;;;4.47;1.80;;;8.20;97.30;;;;;;5034260;28;1107378;-69
2021/10/01 02:21:17;;;;;;;5.72;1.50;;;8.10;97.20;;;;;;5063489;28;20029;-69
2021/10/01 02:23:43;;;;;;;3.72;1.40;;;8.10;97.40;;;;;;5072952;28;20024;-69
2021/10/01 02:26:34;;;;;;;5.80;1.70;;;8.10;97.30;;;;;;5072915;28;20070;-69
2021/10/01 02:29:37;;;;;;;4.15;1.67;;;8.20;97.00;;;;;;5064320;28;20028;-69
2021/10/01 02:32:38;;;;;;;3.45;1.52;;;8.20;96.70;;;;;;5069353;28;21568;-70
2021/10/01 02:35:06;;;;;;;3.65;1.50;;;8.20;97.00;;;;;;5021715;28;20043;-69
2021/10/01 02:37:32;;;;;;;4.45;1.63;;;8.10;97.00;;;;;;5072857;28;20027;-69
2021/10/01 02:40:00;;;;;;;5.40;1.38;;;8.10;97.30;;;;;;5072358;28;20371;-69
2021/10/01 02:42:27;;;;;;;6.53;1.45;;;8.00;97.50;;;;;;5072898;28;20024;-69
2021/10/01 02:44:54;;;;;;;3.42;1.40;;;7.90;97.60;;;;;;5073667;28;20032;-69
2021/10/01 02:47:24;;;;;;;4.25;1.58;;;7.90;97.80;;;;;;5072732;28;20363;-69
2021/10/01 02:49:50;;;;;;;5.05;1.90;;;7.80;97.80;;;;;;5071277;28;20033;-69
2021/10/01 02:52:29;;;;;;;2.65;1.30;;;7.90;97.70;;;;;;5071235;28;20020;-70
2021/10/01 02:54:57;;;;;;;2.95;1.55;;;7.90;97.80;;;;;;5067515;28;20033;-69
2021/10/01 02:57:30;;;;;;;3.92;1.45;;;7.80;97.90;;;;;;5069618;28;20029;-69
2021/10/01 03:00:01;;;;;;;6.65;2.15;;;7.70;98.00;;;;;;5074045;28;20095;-68
2021/10/01 03:02:27;;;;;;;4.75;1.45;;;7.80;98.00;;;;;;5065284;28;20028;-68
2021/10/01 03:04:56;;;;;;;3.28;1.50;;;7.70;98.00;;;;;;5065695;28;20112;-68
2021/10/01 03:07:25;;;;;;;4.65;1.60;;;7.70;98.00;;;;;;5071377;28;20029;-68
2021/10/01 03:09:53;;;;;;;4.45;1.75;;;7.70;98.00;;;;;;5071229;28;20052;-69
2021/10/01 03:12:20;;;;;;;5.20;1.70;;;7.60;98.00;;;;;;5072330;28;20452;-69
2021/10/01 03:14:48;;;;;;;4.03;1.60;;;7.40;98.00;;;;;;5076771;28;20490;-69
2021/10/01 03:17:14;;;;;;;3.65;1.65;;;7.20;98.00;;;;;;5076303;28;20047;-70
2021/10/01 03:19:41;;;;;;;4.35;1.70;;;7.00;98.00;;;;;;5070265;28;20036;-70
2021/10/01 03:22:07;;;;;;;5.50;1.80;;;6.80;98.00;;;;;;5077417;28;20052;-70
2021/10/01 03:24:34;;;;;;;3.33;1.50;;;6.80;98.00;;;;;;5076594;28;20031;-69
2021/10/01 03:26:59;;;;;;;2.72;1.40;;;6.80;98.00;;;;;;5073941;28;20356;-69
2021/10/01 03:29:25;;;;;;;4.80;1.70;;;6.80;98.00;;;;;;5073554;28;20017;-69
2021/10/01 03:31:51;;;;;;;3.05;1.50;;;6.80;98.00;;;;;;5069338;28;20166;-69
2021/10/01 03:34:17;;;;;;;5.10;1.77;;;6.80;98.00;;;;;;5073951;28;20475;-70
2021/10/01 03:36:44;;;;;;;3.95;1.63;;;6.70;98.00;;;;;;5068000;28;20417;-69
2021/10/01 03:39:10;;;;;;;4.20;1.50;;;6.60;98.00;;;;;;5072547;28;20021;-70
2021/10/01 03:41:36;;;;;;;5.05;1.65;;;6.50;98.00;;;;;;5068664;28;20036;-70
2021/10/01 03:44:04;;;;;;;4.47;1.70;;;6.30;98.00;;;;;;5057124;28;20055;-69
2021/10/01 03:46:30;;;;;;;6.75;2.17;;;6.30;98.00;;;;;;5076178;28;20055;-70
2021/10/01 03:48:56;;;;;;;2.60;1.40;;;6.30;98.00;;;;;;5070606;28;20029;-70
2021/10/01 03:51:23;;;;;;;3.72;1.67;;;6.40;98.00;;;;;;5067763;28;20008;-70
2021/10/01 03:53:52;;;;;;;3.22;1.50;;;6.40;98.00;;;;;;5067217;28;20025;-69
2021/10/01 03:56:18;;;;;;;3.33;1.60;;;6.40;98.00;;;;;;5072026;28;20024;-69
2021/10/01 03:58:49;;;;;;;3.28;1.80;;;6.40;98.00;;;;;;5070386;28;20513;-69
2021/10/01 04:01:15;;;;;;;3.25;1.70;;;6.30;98.00;;;;;;5070637;28;20024;-69
2021/10/01 04:03:41;;;;;;;5.90;1.70;;;6.30;98.00;;;;;;5072818;28;20036;-70
2021/10/01 04:06:07;;;;;;;6.22;2.35;;;6.40;98.00;;;;;;5075808;28;20060;-69
2021/10/01 04:08:33;;;;;;;6.30;2.50;;;6.30;98.00;;;;;;5072302;28;20029;-69
2021/10/01 04:10:59;;;;;;;5.05;2.70;;;6.30;98.00;;;;;;5068596;28;20029;-69
2021/10/01 04:13:25;;;;;;;6.80;2.95;;;6.20;98.00;;;;;;5076590;28;20020;-71
2021/10/01 04:15:51;;;;;;;4.80;2.10;;;6.00;98.00;;;;;;5070151;28;20035;-69
2021/10/01 04:18:17;;;;;;;6.50;2.40;;;5.90;98.00;;;;;;5073159;28;20123;-69
2021/10/01 04:20:45;;;;;;;6.55;2.80;;;5.80;98.00;;;;;;5063144;28;20029;-69
2021/10/01 04:23:11;;;;;;;6.88;3.10;;;5.70;98.00;;;;;;5063559;28;20363;-69
2021/10/01 04:25:37;;;;;;;8.45;4.00;;;5.60;98.00;;;;;;5070097;28;20024;-69
2021/10/01 04:28:06;;;;;;;7.60;3.72;;;5.50;98.00;;;;;;5062416;28;20325;-68
2021/10/01 04:30:42;;;;;;;3.83;2.10;;;5.40;98.00;;;;;;5063672;28;20356;-69
2021/10/01 04:33:19;;;;;;;8.90;2.67;;;5.50;98.00;;;;;;5067279;28;20024;-68
2021/10/01 04:35:45;;;;;;;5.30;1.90;;;5.50;98.00;;;;;;5070832;28;20367;-70
2021/10/01 04:38:10;;;;;;;3.50;1.70;;;5.50;97.80;;;;;;5069512;28;20163;-69
2021/10/01 04:40:37;;;;;;;7.20;2.00;;;5.70;97.80;;;;;;5071648;28;20025;-69
2021/10/01 04:43:03;;;;;;;6.22;1.70;;;5.70;97.60;;;;;;5064841;28;20032;-69
2021/10/01 04:45:29;;;;;;;8.90;3.22;;;5.80;97.70;;;;;;5073333;28;20040;-69
2021/10/01 04:47:54;;;;;;;7.50;4.03;;;5.90;98.00;;;;;;5072799;28;20036;-68
2021/10/01 04:50:20;;;;;;;5.82;2.45;;;5.80;98.00;;;;;;5073529;28;20009;-69
2021/10/01 04:52:48;;;;;;;5.68;1.80;;;5.70;98.00;;;;;;5068655;28;20340;-69
2021/10/01 04:55:13;;;;;;;4.25;1.67;;;5.80;98.00;;;;;;5069753;28;20121;-70
2021/10/01 04:57:39;;;;;;;4.00;1.85;;;6.00;98.00;;;;;;5068440;28;20052;-69
2021/10/01 05:00:06;;;;;;;4.15;1.85;;;6.20;98.00;;;;;;5071257;28;20020;-69
2021/10/01 05:02:31;;;;;;;6.78;2.00;;;6.30;98.00;;;;;;5073058;28;20344;-68
2021/10/01 05:04:58;;;;;;;5.70;1.60;;;6.60;98.00;;;;;;5069707;28;20029;-69
2021/10/01 05:07:24;;;;;;;3.40;1.67;;;6.70;98.00;;;;;;5071957;28;20052;-69
2021/10/01 05:09:53;;;;;;;3.95;1.90;;;6.90;98.00;;;;;;5064572;28;20491;-69
2021/10/01 05:12:19;;;;;;;3.47;1.70;;;6.90;98.00;;;;;;5065615;28;20139;-69
2021/10/01 05:14:45;;;;;;;7.25;2.30;;;7.10;98.00;;;;;;5069007;28;20413;-69
2021/10/01 05:17:11;;;;;;;2.92;1.50;;;7.20;98.00;;;;;;5074733;28;20059;-69
2021/10/01 05:19:36;;;;;;;4.90;2.22;;;7.30;98.00;;;;;;5073291;28;20033;-69
2021/10/01 05:22:02;;;;;;;7.40;2.00;;;7.40;98.00;;;;;;5074309;28;20024;-69
2021/10/01 05:24:28;;;;;;;6.45;1.92;;;7.40;98.00;;;;;;5073364;28;20032;-69
2021/10/01 05:26:54;;;;;;;3.40;1.60;;;7.40;98.00;;;;;;5072847;28;20070;-68
2021/10/01 05:29:19;;;;;;;6.97;2.10;;;7.30;98.00;;;;;;5072775;28;20082;-70
2021/10/01 05:31:45;;;;;;;5.65;2.33;;;7.30;98.00;;;;;;5072954;28;20119;-69
2021/10/01 05:34:11;;;;;;;3.65;1.88;;;7.30;98.00;;;;;;5071977;28;20052;-70
2021/10/01 05:36:37;;;;;;;5.50;2.47;;;7.30;98.00;;;;;;5054882;28;20440;-69
2021/10/01 05:39:03;;;;;;;3.80;1.95;;;7.10;98.00;;;;;;5060852;28;20111;-69
2021/10/01 05:41:30;;;;;;;5.47;1.67;;;7.00;98.00;;;;;;5072941;28;20041;-68
2021/10/01 05:43:59;;;;;;;7.00;2.22;;;7.00;98.00;;;;;;5074050;28;20032;-69
2021/10/01 05:46:25;;;;;;;5.45;2.00;;;7.10;98.00;;;;;;5073883;28;20031;-69
2021/10/01 05:48:57;;;;;;;7.30;1.80;;;7.10;98.00;;;;;;5074538;28;20321;-69
2021/10/01 05:51:23;;;;;;;5.55;1.80;;;7.20;98.00;;;;;;5074760;28;20021;-69
2021/10/01 05:54:11;;;;;;;3.60;1.85;;;7.30;98.00;;;;;;5073755;28;20028;-68
2021/10/01 05:56:36;;;;;;;5.20;1.90;;;7.30;98.00;;;;;;5072297;28;20048;-68
2021/10/01 05:59:02;;;;;;;7.72;2.17;;;7.30;98.00;;;;;;5073678;28;20386;-68
2021/10/01 06:01:28;;;;;;;4.53;1.90;;;7.30;98.00;;;;;;5073120;28;20111;-68
2021/10/01 06:03:53;;;;;;;9.10;2.13;;;7.40;98.00;;;;;;5074180;28;20029;-70
2021/10/01 06:06:19;;;;;;;4.82;2.00;;;7.30;98.00;;;;;;5074019;28;20023;-69
2021/10/01 06:08:45;;;;;;;4.70;1.77;;;7.30;98.00;;;;;;5068205;28;20159;-70
2021/10/01 06:11:11;;;;;;;8.02;2.08;;;7.30;98.00;;;;;;5065775;28;20024;-70
2021/10/01 06:13:38;;;;;;;6.70;2.47;;;7.40;98.00;;;;;;5066509;28;20074;-69
2021/10/01 06:16:04;;;;;;;11.68;6.53;;;7.50;98.00;;;;;;5068657;28;20024;-70
2021/10/01 06:18:30;;;;;;;11.77;4.90;;;7.60;98.00;;;;;;5069778;28;20040;-70
2021/10/01 06:20:55;;;;;;;10.90;4.07;;;7.70;98.00;;;;;;5072661;28;20079;-70
2021/10/01 06:23:23;;;;;;;7.55;2.45;;;7.70;98.00;;;;;;5071095;28;20444;-69
2021/10/01 06:25:49;;;;;;;9.20;3.65;;;7.80;98.00;;;;;;5071942;28;20024;-70
2021/10/01 06:28:14;;;;;;;8.13;3.30;;;7.90;98.00;;;;;;5074217;28;20097;-69
2021/10/01 06:30:43;;;;;;;8.30;2.38;;;7.90;98.00;;;;;;5070749;28;20766;-69
2021/10/01 06:33:09;;;;;;;5.80;2.13;;;8.00;98.00;;;;;;5074038;28;20020;-69
2021/10/01 06:35:35;;;;;;;4.78;1.85;;;8.10;98.00;;;;;;5072478;28;20024;-69
2021/10/01 06:38:01;;;;;;;5.20;2.38;;;8.20;98.00;;;;;;5072002;28;20036;-70
2021/10/01 06:40:26;;;;;;;8.02;2.17;;;8.30;98.00;;;;;;5069112;28;20047;-70
2021/10/01 06:42:55;;;;;;;5.03;1.90;;;8.30;98.00;;;;;;5070932;28;20044;-70
2021/10/01 06:45:23;;;;;;;5.60;1.88;;;8.40;98.00;;;;;;5070043;28;20035;-69
2021/10/01 06:47:56;;;;;;;5.90;1.80;;;8.60;98.00;;;;;;5070594;28;20028;-69
2021/10/01 08:20:39;;;;;;;3.15;1.02;;;21.00;67.40;;;;;;5076686;28;20050;-69
2021/10/01 08:23:04;;;;;;;2.83;0.82;;;20.80;65.60;;;;;;5075204;28;20036;-70
2021/10/01 08:25:30;;;;;;;3.53;1.20;;;20.40;68.30;;;;;;5076068;28;20305;-69
2021/10/01 08:27:56;;;;;;;4.20;1.30;;;20.80;66.30;;;;;;5076648;28;20027;-70
2021/10/01 08:30:21;;;;;;;4.63;1.10;;;21.10;65.40;;;;;;5077149;28;20467;-70
2021/10/01 08:32:48;;;;;;;2.45;0.80;;;20.70;66.80;;;;;;5074789;28;20048;-70
2021/10/01 08:35:14;;;;;;;5.15;1.15;;;21.00;66.90;;;;;;5076230;28;20025;-69
2021/10/01 08:37:40;;;;;;;3.72;1.08;;;21.20;65.40;;;;;;5075269;28;20256;-69
2021/10/01 08:40:07;;;;;;;3.78;1.00;;;21.20;65.70;;;;;;5075050;28;20101;-69
2021/10/01 08:42:33;;;;;;;2.67;0.73;;;21.60;64.20;;;;;;5075836;28;20025;-69
2021/10/01 08:45:00;;;;;;;3.22;0.90;;;21.50;63.20;;;;;;5076579;28;20115;-69
2021/10/01 08:47:27;;;;;;;2.92;1.05;;;20.40;64.40;;;;;;5074422;28;20031;-70
2021/10/01 08:49:58;;;;;;;4.30;0.90;;;19.80;65.20;;;;;;5076759;28;20027;-69
2021/10/01 08:52:24;;;;;;;2.22;0.80;;;19.60;66.60;;;;;;5074295;28;20033;-69
2021/10/01 08:54:50;;;;;;;4.10;0.95;;;20.80;66.00;;;;;;5075192;28;20078;-70
2021/10/01 08:57:16;;;;;;;2.90;0.73;;;22.20;63.20;;;;;;5067366;28;20081;-70
2021/10/01 08:59:42;;;;;;;2.83;1.10;;;23.30;62.50;;;;;;5076407;28;20020;-69
2021/10/01 09:02:08;;;;;;;4.47;1.00;;;23.50;60.30;;;;;;5075172;28;20070;-70
2021/10/01 09:04:35;;;;;;;3.72;1.00;;;22.80;61.40;;;;;;5075746;28;20325;-69
2021/10/01 09:07:02;;;;;;;2.17;0.77;;;22.60;61.90;;;;;;5073259;28;20025;-69
2021/10/01 09:09:43;;;;;;;2.92;0.80;;;23.70;61.60;;;;;;5075538;28;20028;-70
2021/10/01 09:12:13;;;;;;;1.95;0.88;;;24.60;59.40;;;;;;5071606;28;20024;-70
2021/10/01 09:14:48;;;;;;;3.22;0.70;;;24.80;58.30;;;;;;5076213;28;20032;-70
2021/10/01 09:17:18;;;;;;;3.13;0.80;;;24.50;57.90;;;;;;5072919;28;20044;-70
2021/10/01 09:19:45;;;;;;;4.28;1.10;;;25.10;57.10;;;;;;5076099;28;20035;-70
2021/10/01 09:22:22;;;;;;;2.58;1.02;;;25.70;57.80;;;;;;5065576;28;20029;-70
2021/10/01 09:24:48;;;;;;;2.65;0.73;;;25.60;56.80;;;;;;5067919;28;20031;-70
2021/10/01 09:27:14;;;;;;;5.70;1.90;;;26.30;55.40;;;;;;5073616;28;20481;-70
2021/10/01 09:29:39;;;;;;;4.68;1.50;;;25.80;58.80;;;;;;5074646;28;20082;-70
2021/10/01 09:32:08;;;;;;;13.55;5.00;;;24.90;59.90;;;;;;5074827;28;20321;-69
2021/10/01 09:34:42;;;;;;;6.55;2.85;;;23.80;62.80;;;;;;5075138;28;20028;-70
2021/10/01 09:37:12;;;;;;;7.28;2.80;;;22.90;64.60;;;;;;5074905;28;20056;-69
2021/10/01 09:39:44;;;;;;;7.53;2.67;;;22.40;65.60;;;;;;5074864;28;20103;-69
2021/10/01 09:42:41;;;;;;;7.35;2.40;;;22.10;66.80;;;;;;5073056;28;20028;-69
2021/10/01 09:45:08;;;;;;;5.05;1.90;;;21.90;66.90;;;;;;5074308;28;20039;-70
2021/10/01 09:47:42;;;;;;;5.95;2.60;;;21.90;66.60;;;;;;5074726;28;20024;-70
2021/10/01 09:50:14;;;;;;;7.00;3.22;;;22.10;66.50;;;;;;5074185;28;20107;-69
2021/10/01 09:52:50;;;;;;;6.60;2.03;;;22.20;65.50;;;;;;5054359;28;20021;-70
2021/10/01 09:55:18;;;;;;;7.18;2.00;;;22.30;64.50;;;;;;5054306;28;20024;-69
2021/10/01 09:58:17;;;;;;;6.30;1.80;;;22.60;64.80;;;;;;5074067;28;20024;-69
2021/10/01 10:00:52;;;;;;;6.57;1.92;;;22.70;66.00;;;;;;5070563;28;20025;-69
2021/10/01 10:03:24;;;;;;;11.25;2.17;;;22.50;66.30;;;;;;5064623;28;20110;-69
2021/10/01 10:05:57;;;;;;;4.40;1.90;;;23.00;66.70;;;;;;5073962;28;20032;-68
2021/10/01 10:08:31;;;;;;;4.35;2.08;;;22.30;69.00;;;;;;5074292;28;20032;-69
2021/10/01 10:11:01;;;;;;;4.57;1.85;;;22.40;67.00;;;;;;5063147;28;20500;-70
2021/10/01 10:13:47;;;;;;;5.63;2.08;;;23.30;66.10;;;;;;5073821;28;20025;-69
2021/10/01 10:16:24;;;;;;;4.72;2.13;;;23.50;66.70;;;;;;5073284;28;20031;-69
2021/10/01 10:18:56;;;;;;;6.40;2.00;;;23.60;65.00;;;;;;5053931;28;20056;-69
2021/10/01 10:21:22;;;;;;;5.13;1.77;;;23.60;65.20;;;;;;5061231;28;20119;-70
2021/10/01 10:23:47;;;;;;;6.68;2.38;;;22.90;65.20;;;;;;5076576;28;20395;-68
2021/10/01 10:26:13;;;;;;;7.50;2.40;;;23.30;66.00;;;;;;5074252;28;20051;-71
2021/10/01 10:28:45;;;;;;;4.80;2.00;;;23.20;66.10;;;;;;5078041;28;20306;-69
2021/10/01 10:31:12;;;;;;;4.75;1.80;;;22.80;66.30;;;;;;5073333;28;20085;-68
2021/10/01 10:33:43;;;;;;;5.28;1.83;;;23.30;66.80;;;;;;5064712;28;20406;-68
2021/10/01 10:36:35;;;;;;;3.72;1.58;;;23.00;67.10;;;;;;5075132;28;20025;-69
2021/10/01 10:39:10;;;;;;;4.40;1.63;;;22.20;68.00;;;;;;5065965;28;20095;-69
2021/10/01 10:41:37;;;;;;;4.80;1.70;;;22.10;69.10;;;;;;5067694;28;20752;-69
2021/10/01 10:44:04;;;;;;;9.77;2.10;;;22.30;67.10;;;;;;5075721;28;20050;-69
2021/10/01 10:46:36;;;;;;;4.97;1.60;;;22.10;68.00;;;;;;5077729;28;20338;-69
2021/10/01 10:49:17;;;;;;;8.45;1.88;;;22.60;68.50;;;;;;5066265;28;20017;-69
2021/10/01 10:52:03;;;;;;;3.83;1.38;;;23.30;66.60;;;;;;5072343;28;20026;-69
2021/10/01 10:54:37;;;;;;;4.35;1.50;;;23.50;65.60;;;;;;5076093;28;20013;-68
2021/10/01 10:57:25;;;;;;;4.03;1.33;;;23.80;66.00;;;;;;5061169;28;20037;-69
2021/10/01 11:00:04;;;;;;;3.83;1.60;;;24.00;64.60;;;;;;5071053;28;20379;-69
2021/10/01 11:02:47;;;;;;;4.45;1.40;;;24.30;64.20;;;;;;5076505;28;20024;-69
2021/10/01 11:05:26;;;;;;;3.72;1.55;;;24.00;64.10;;;;;;5077203;28;20488;-69
2021/10/01 11:07:56;;;;;;;4.88;1.63;;;24.30;64.20;;;;;;5063121;28;20028;-69
2021/10/01 11:10:37;;;;;;;5.65;1.40;;;24.60;63.10;;;;;;5071680;28;20313;-69
2021/10/01 11:13:21;;;;;;;3.67;1.33;;;24.30;63.40;;;;;;5076444;28;20052;-69
2021/10/01 11:16:18;;;;;;;3.75;1.33;;;24.60;62.80;;;;;;5070215;28;20056;-69
2021/10/01 11:18:47;;;;;;;3.72;1.27;;;24.90;62.30;;;;;;5070763;28;20044;-69
2021/10/01 11:21:25;;;;;;;4.53;1.50;;;25.10;62.40;;;;;;5073440;28;20032;-69
2021/10/01 11:24:07;;;;;;;4.43;1.77;;;24.60;62.60;;;;;;5070162;28;20029;-69
2021/10/01 11:26:36;;;;;;;5.32;1.55;;;24.10;62.90;;;;;;5074303;28;20040;-69
2021/10/01 11:29:05;;;;;;;4.03;1.33;;;23.80;64.00;;;;;;5072920;28;20078;-69
2021/10/01 11:31:40;;;;;;;4.63;1.38;;;23.90;64.80;;;;;;5070058;28;20055;-70
2021/10/01 11:34:07;;;;;;;3.20;1.50;;;24.10;64.60;;;;;;5069499;28;20032;-69
2021/10/01 11:36:39;;;;;;;3.58;1.30;;;25.10;62.90;;;;;;5073631;28;20013;-69
2021/10/01 11:39:13;;;;;;;7.72;1.40;;;25.80;61.30;;;;;;5074773;28;20027;-69
2021/10/01 11:41:45;;;;;;;4.00;1.33;;;25.10;63.00;;;;;;5072217;28;20028;-68
2021/10/01 11:44:13;;;;;;;4.32;1.45;;;24.60;62.40;;;;;;5069672;28;20020;-68
2021/10/01 11:46:45;;;;;;;5.22;1.55;;;24.40;63.50;;;;;;5075804;28;20024;-70
2021/10/01 11:49:27;;;;;;;4.45;1.70;;;24.80;63.00;;;;;;5070008;28;20012;-69
2021/10/01 11:52:05;;;;;;;4.60;1.60;;;24.70;62.70;;;;;;5076151;28;20036;-69
2021/10/01 11:54:31;;;;;;;4.38;1.55;;;24.70;61.60;;;;;;5077025;28;20025;-68
2021/10/01 11:56:59;;;;;;;4.88;1.40;;;24.80;62.00;;;;;;5074786;28;20032;-70
2021/10/01 11:59:46;;;;;;;3.05;1.30;;;24.70;61.80;;;;;;5063863;28;20087;-69
2021/10/01 12:02:12;;;;;;;5.43;1.60;;;24.90;61.70;;;;;;5071228;28;20088;-69
2021/10/01 12:04:37;;;;;;;3.45;1.48;;;25.50;60.80;;;;;;5059925;28;20104;-69
2021/10/01 12:07:06;;;;;;;4.80;1.75;;;25.30;60.10;;;;;;5064007;28;20162;-69
2021/10/01 12:09:33;;;;;;;8.20;1.70;;;24.90;60.60;;;;;;5069836;28;20028;-68
2021/10/01 12:12:07;;;;;;;6.43;1.90;;;24.40;60.20;;;;;;5057981;28;20032;-68
2021/10/01 12:14:33;;;;;;;5.75;1.73;;;24.00;60.90;;;;;;5071621;28;20025;-69
2021/10/01 12:17:01;;;;;;;4.07;1.60;;;23.80;62.80;;;;;;5074508;28;20043;-69
2021/10/01 12:19:28;;;;;;;5.10;1.60;;;24.00;62.00;;;;;;5073427;28;20024;-69
2021/10/01 12:22:15;;;;;;;4.70;2.00;;;23.80;62.40;;;;;;5072691;28;20316;-69
2021/10/01 12:24:45;;;;;;;3.28;1.42;;;23.80;62.50;;;;;;5068441;28;20089;-69
2021/10/01 12:27:11;;;;;;;6.00;1.60;;;23.90;61.90;;;;;;5059886;28;20029;-68
2021/10/01 12:29:57;;;;;;;7.75;2.03;;;24.10;63.10;;;;;;5069349;28;20051;-69
2021/10/01 12:32:24;;;;;;;5.78;2.15;;;23.80;62.80;;;;;;5072062;28;20031;-68
2021/10/01 12:34:55;;;;;;;6.15;2.00;;;23.80;62.30;;;;;;5074969;28;20024;-69
2021/10/01 12:37:24;;;;;;;6.15;1.90;;;23.80;61.60;;;;;;5074854;28;20068;-69
2021/10/01 12:39:53;;;;;;;4.82;2.17;;;23.90;62.10;;;;;;5068149;28;20329;-68
2021/10/01 12:42:29;;;;;;;4.70;2.20;;;23.70;61.70;;;;;;5072455;28;20025;-68
2021/10/01 12:45:12;;;;;;;6.18;2.40;;;23.10;61.30;;;;;;5068879;28;20025;-68
2021/10/01 12:47:43;;;;;;;7.95;2.15;;;22.80;62.80;;;;;;5069223;28;20032;-68
2021/10/01 12:50:18;;;;;;;6.45;2.20;;;22.90;63.00;;;;;;5075570;28;20044;-68
2021/10/01 12:52:53;;;;;;;6.28;2.40;;;22.90;61.60;;;;;;5071964;28;20084;-67
2021/10/01 12:55:20;;;;;;;5.15;2.28;;;22.90;62.40;;;;;;5063119;28;20419;-68
2021/10/01 12:57:51;;;;;;;5.32;2.30;;;22.90;63.80;;;;;;5068482;28;20029;-67
2021/10/01 13:00:37;;;;;;;5.55;2.63;;;23.00;62.20;;;;;;5059048;28;20027;-68
2021/10/01 13:03:09;;;;;;;5.05;2.13;;;23.00;62.90;;;;;;5073535;28;20024;-69
2021/10/01 13:05:40;;;;;;;5.90;2.72;;;22.80;62.90;;;;;;5057811;28;20107;-69
2021/10/01 13:08:13;;;;;;;4.20;2.20;;;22.70;62.90;;;;;;5066300;28;20313;-67
2021/10/01 13:10:50;;;;;;;7.13;2.85;;;22.90;63.90;;;;;;5069466;28;20008;-68
2021/10/01 13:13:28;;;;;;;8.05;2.83;;;23.10;64.60;;;;;;5061298;28;20425;-68
2021/10/01 13:15:58;;;;;;;5.72;2.63;;;22.70;63.40;;;;;;5068871;28;20041;-69
2021/10/01 13:18:32;;;;;;;6.53;3.00;;;22.70;65.10;;;;;;5065161;28;20045;-67
2021/10/01 13:21:19;;;;;;;6.75;2.95;;;22.70;64.70;;;;;;5058691;28;20074;-68
2021/10/01 13:24:01;;;;;;;4.70;2.55;;;22.50;65.00;;;;;;5055811;28;20033;-69
2021/10/01 13:26:31;;;;;;;9.73;2.90;;;22.80;66.00;;;;;;5053802;28;20037;-69
2021/10/01 13:29:03;;;;;;;7.05;2.60;;;22.70;64.70;;;;;;5054858;28;20491;-68
2021/10/01 13:31:38;;;;;;;4.93;2.50;;;22.70;64.80;;;;;;5055360;28;20028;-67
2021/10/01 13:34:05;;;;;;;4.50;2.53;;;22.60;65.90;;;;;;5063845;28;20048;-68
2021/10/01 13:36:34;;;;;;;6.88;2.78;;;22.60;65.10;;;;;;5067688;28;20066;-68
2021/10/01 13:39:00;;;;;;;4.97;2.38;;;22.60;65.20;;;;;;5072330;28;20412;-69
2021/10/01 13:41:26;;;;;;;5.07;2.30;;;22.60;65.10;;;;;;5060614;28;20032;-68
2021/10/01 13:43:52;;;;;;;5.38;2.78;;;22.80;65.90;;;;;;5074798;28;20416;-69
2021/10/01 13:46:20;;;;;;;5.47;2.90;;;22.80;65.30;;;;;;5067225;28;20021;-69
2021/10/01 13:48:47;;;;;;;8.30;2.78;;;23.00;65.30;;;;;;5066210;28;20324;-69
2021/10/01 13:51:13;;;;;;;6.43;2.50;;;22.50;66.20;;;;;;5061575;28;20058;-68
2021/10/01 13:53:38;;;;;;;6.97;2.22;;;22.40;66.10;;;;;;5060849;28;20017;-68
2021/10/01 13:56:04;;;;;;;5.50;2.50;;;22.80;65.10;;;;;;5057690;28;20028;-68
2021/10/01 13:58:30;;;;;;;8.13;2.60;;;23.40;65.00;;;;;;5062132;28;20039;-68
2021/10/01 14:00:56;;;;;;;11.02;2.90;;;23.40;65.60;;;;;;5072307;28;20337;-68
2021/10/01 14:03:23;;;;;;;4.90;2.42;;;23.70;64.50;;;;;;5069855;28;20107;-69
2021/10/01 14:05:49;;;;;;;5.93;2.95;;;23.70;64.20;;;;;;5063994;28;20024;-68
2021/10/01 14:08:16;;;;;;;5.90;3.05;;;23.80;63.90;;;;;;5061297;28;20032;-70
2021/10/01 14:10:42;;;;;;;5.35;2.70;;;24.10;63.60;;;;;;5072869;28;20097;-68
2021/10/01 14:13:11;;;;;;;6.40;3.13;;;24.30;63.50;;;;;;5068790;28;20052;-68
2021/10/01 14:15:42;;;;;;;7.68;3.03;;;23.90;63.70;;;;;;5065414;28;20448;-68
2021/10/01 14:18:07;;;;;;;7.07;3.00;;;23.90;66.00;;;;;;5065567;28;20049;-67
2021/10/01 14:20:36;;;;;;;5.28;3.03;;;23.80;65.30;;;;;;5073278;28;20032;-68
2021/10/01 14:23:02;;;;;;;7.63;2.70;;;23.50;65.40;;;;;;5072957;28;20033;-69
2021/10/01 14:25:29;;;;;;;6.60;3.13;;;23.30;65.10;;;;;;5062064;28;20033;-69
2021/10/01 14:27:59;;;;;;;8.23;2.88;;;23.50;65.10;;;;;;5061106;28;20104;-69
2021/10/01 14:30:30;;;;;;;6.07;3.20;;;23.40;65.20;;;;;;5072619;28;20444;-69
2021/10/01 14:32:57;;;;;;;7.65;3.28;;;23.20;65.80;;;;;;5069541;28;20033;-69
2021/10/01 14:35:23;;;;;;;7.93;2.90;;;23.30;65.30;;;;;;5072787;28;20021;-68
2021/10/01 14:37:50;;;;;;;7.57;3.40;;;23.20;65.00;;;;;;5072777;28;20020;-68